Leyendecker II PSRC Data

Date Time Air Temperature Relative Humidity Dewpoint Windchill Heat Index Wind Speed Wind Dir. Rain Solar Radiation Soil Temperature
2m 2m 3m 3m 10cm
US/Mountain F % F F F MPH deg in MJ/m^2 F
max avg avg
2021-09-15 00:05:00 65.2 69.3 54.9 65.2 65.2 2.1 3.7 2.5 106.1 84.4 0.00 0.0000000 75.1
2021-09-15 00:10:00 64.9 68.5 54.3 64.9 64.9 2.6 2.6 0.7 102.5 109.6 0.00 0.0000000 75.1
2021-09-15 00:15:00 64.7 69.4 54.5 64.7 64.7 0.8 2.6 1.2 156.7 104.6 0.00 0.0000000 75.0
2021-09-15 00:20:00 65.2 66.9 53.9 65.2 65.2 2.4 3.1 1.6 143.5 148.0 0.00 0.0000000 75.0
2021-09-15 00:25:00 65.2 68.0 54.3 65.2 65.2 2.4 5.3 3.1 267.6 254.8 0.00 0.0000000 75.0
2021-09-15 00:30:00 65.4 67.0 54.2 65.4 65.4 1.9 4.0 2.0 204.5 213.2 0.00 0.0000000 74.9
2021-09-15 00:35:00 65.0 69.3 54.7 65.0 65.0 1.0 2.1 1.6 27.4 116.9 0.00 0.0000000 74.9
2021-09-15 00:40:00 64.9 70.2 54.9 64.9 64.9 0.0 1.5 0.5 223.3 309.3 0.00 0.0000000 74.9
2021-09-15 00:45:00 64.4 71.1 54.8 64.4 64.4 2.8 2.8 0.6 202.1 202.6 0.00 0.0000000 74.9
2021-09-15 00:50:00 64.0 77.6 56.9 64.0 64.0 2.8 3.0 2.6 164.9 183.4 0.00 0.0000000 74.9
2021-09-15 00:55:00 63.7 77.8 56.7 63.7 63.7 2.1 3.3 2.5 201.1 190.6 0.00 0.0000000 74.9
2021-09-15 01:00:00 63.6 79.1 57.1 63.6 63.6 1.3 1.9 1.1 187.9 198.4 0.00 0.0000000 74.8
2021-09-15 01:05:00 63.4 76.6 55.9 63.4 63.4 1.7 1.9 1.5 280.7 251.2 0.00 0.0000000 74.8
2021-09-15 01:10:00 63.3 77.2 56.0 63.3 63.3 1.3 1.5 1.3 262.3 278.9 0.00 0.0000000 74.8
2021-09-15 01:15:00 63.0 77.7 56.0 63.0 63.0 0.0 1.3 0.7 293.8 257.8 0.00 0.0000000 74.8
2021-09-15 01:20:00 62.9 79.5 56.5 62.9 62.9 2.4 2.4 0.6 305.7 300.7 0.00 0.0000000 74.7
2021-09-15 01:25:00 62.9 81.0 56.9 62.9 62.9 3.3 3.7 2.7 319.1 347.9 0.00 0.0000000 74.7
2021-09-15 01:30:00 62.9 80.9 56.9 62.9 62.9 1.9 5.5 3.5 1.7 323.9 0.00 0.0000000 74.7
2021-09-15 01:35:00 63.0 79.8 56.7 63.0 63.0 1.5 2.6 1.8 306.3 327.7 0.00 0.0000000 74.7
2021-09-15 01:40:00 63.3 73.8 54.8 63.3 63.3 4.6 5.3 2.8 310.1 4.0 0.00 0.0000000 74.6
2021-09-15 01:45:00 63.8 64.0 51.4 63.8 63.8 5.6 5.6 3.3 327.2 298.8 0.00 0.0000020 74.6
2021-09-15 01:50:00 65.6 60.4 51.5 65.6 65.6 2.1 4.9 2.7 298.7 312.3 0.00 0.0000313 74.6
2021-09-15 01:55:00 66.7 56.0 50.5 66.7 66.7 4.7 4.7 3.0 9.5 342.1 0.00 0.0000368 74.6
2021-09-15 02:00:00 68.8 50.2 49.6 68.8 68.8 3.7 6.0 5.2 23.5 29.6 0.00 0.0000240 74.6
2021-09-15 02:05:00 68.4 51.3 49.7 68.4 68.4 2.8 3.7 2.7 101.7 158.2 0.00 0.0000020 74.5
2021-09-15 02:10:00 67.4 60.6 53.3 67.4 67.4 3.1 3.1 2.6 188.8 202.5 0.00 0.0000000 74.5
2021-09-15 02:15:00 65.8 65.0 53.7 65.8 65.8 0.0 4.0 2.7 130.1 153.0 0.00 0.0000000 74.5
2021-09-15 02:20:00 66.0 65.3 54.1 66.0 66.0 2.1 2.8 1.5 291.0 93.3 0.00 0.0000000 74.5
2021-09-15 02:25:00 65.4 67.9 54.5 65.4 65.4 1.3 2.8 1.8 298.2 256.2 0.00 0.0000000 74.5
2021-09-15 02:30:00 64.7 71.6 55.3 64.7 64.7 1.7 2.2 1.9 298.7 289.9 0.00 0.0000000 74.4
2021-09-15 02:35:00 63.9 74.1 55.5 63.9 63.9 3.8 5.8 3.5 274.1 300.7 0.00 0.0000000 74.4
2021-09-15 02:40:00 63.8 71.0 54.2 63.8 63.8 1.5 4.0 2.6 279.1 284.4 0.00 0.0000000 74.4
2021-09-15 02:45:00 63.6 72.5 54.7 63.6 63.6 1.3 2.1 1.2 201.2 272.1 0.00 0.0000000 74.4
2021-09-15 02:50:00 63.4 72.2 54.3 63.4 63.4 3.1 3.1 1.6 280.4 274.1 0.00 0.0000000 74.4
2021-09-15 02:55:00 63.0 74.9 55.0 63.0 63.0 2.2 3.3 2.7 274.3 290.7 0.00 0.0000000 74.3
2021-09-15 03:00:00 62.9 75.3 55.0 62.9 62.9 3.1 3.3 1.9 299.7 275.3 0.00 0.0000000 74.3
2021-09-15 03:05:00 62.8 75.1 54.8 62.8 62.8 3.3 3.3 1.9 314.6 305.7 0.00 0.0000000 74.3
2021-09-15 03:10:00 62.4 76.8 55.1 62.4 62.4 3.1 3.5 2.8 310.9 309.2 0.00 0.0000000 74.3
2021-09-15 03:15:00 62.3 77.2 55.1 62.3 62.3 2.4 4.0 2.8 295.3 302.2 0.00 0.0000000 74.3
2021-09-15 03:20:00 62.1 78.1 55.2 62.1 62.1 3.5 3.5 2.6 303.4 313.1 0.00 0.0000000 74.3
2021-09-15 03:25:00 61.9 76.9 54.6 61.9 61.9 4.9 4.9 3.7 309.1 309.9 0.00 0.0000000 74.2
2021-09-15 03:30:00 62.1 76.2 54.5 62.1 62.1 2.1 5.1 3.7 280.8 300.7 0.00 0.0000000 74.2
2021-09-15 03:35:00 62.3 72.6 53.4 62.3 62.3 3.1 4.2 2.9 302.2 304.5 0.00 0.0000000 74.2
2021-09-15 03:40:00 62.7 68.7 52.2 62.7 62.7 4.0 4.7 3.4 311.8 308.1 0.00 0.0000000 74.2
2021-09-15 03:45:00 63.0 71.1 53.5 63.0 63.0 2.1 4.9 3.2 287.8 291.4 0.00 0.0000000 74.2
2021-09-15 03:50:00 63.3 66.8 52.1 63.3 63.3 4.0 5.5 3.1 308.9 299.5 0.00 0.0000000 74.2
2021-09-15 03:55:00 63.7 66.7 52.4 63.7 63.7 1.7 4.4 3.0 279.3 297.8 0.00 0.0000000 74.2
2021-09-15 04:00:00 63.6 64.3 51.4 63.6 63.6 3.3 3.3 2.4 295.9 294.3 0.00 0.0000000 74.2
2021-09-15 04:05:00 64.0 61.8 50.6 64.0 64.0 4.9 4.9 3.2 302.0 302.9 0.00 0.0000000 74.1
2021-09-15 04:10:00 64.4 61.8 51.1 64.4 64.4 3.8 6.3 4.1 289.6 299.9 0.00 0.0000000 74.1
2021-09-15 04:15:00 64.5 58.6 49.7 64.5 64.5 3.3 4.6 3.4 298.9 296.7 0.00 0.0000000 74.1
2021-09-15 04:20:00 65.0 59.3 50.4 65.0 65.0 2.8 4.9 3.2 279.6 299.2 0.00 0.0000000 74.1
2021-09-15 04:25:00 64.9 58.0 49.7 64.9 64.9 3.0 4.2 3.3 219.3 298.3 0.00 0.0000000 74.1
2021-09-15 04:30:00 64.8 58.9 50.1 64.8 64.8 2.8 4.0 3.0 299.9 299.5 0.00 0.0000000 74.1
2021-09-15 04:35:00 64.5 59.8 50.2 64.5 64.5 0.0 3.0 1.1 259.1 275.9 0.00 0.0000000 74.0
2021-09-15 04:40:00 64.0 60.0 49.9 64.0 64.0 1.5 2.1 1.1 258.6 299.1 0.00 0.0000000 74.0
2021-09-15 04:45:00 63.8 59.4 49.4 63.8 63.8 3.0 3.0 1.9 319.9 270.2 0.00 0.0000000 74.0
2021-09-15 04:50:00 63.8 61.1 50.1 63.8 63.8 1.3 3.0 1.8 248.5 269.2 0.00 0.0000000 74.0
2021-09-15 04:55:00 63.6 60.6 49.8 63.6 63.6 1.9 4.4 2.1 275.2 271.3 0.00 0.0000000 74.0
2021-09-15 05:00:00 63.5 61.3 50.0 63.5 63.5 1.2 2.8 1.6 43.4 315.1 0.00 0.0000000 74.0
2021-09-15 05:05:00 63.0 62.9 50.1 63.0 63.0 0.0 2.8 1.5 11.3 17.6 0.00 0.0000000 74.0
2021-09-15 05:10:00 62.7 63.3 50.0 62.7 62.7 1.7 2.8 1.1 269.6 283.6 0.00 0.0000000 73.9
2021-09-15 05:15:00 62.6 64.1 50.3 62.6 62.6 2.4 3.0 2.0 314.6 273.5 0.00 0.0000000 73.9
2021-09-15 05:20:00 62.5 63.2 49.8 62.5 62.5 2.4 3.3 2.6 279.6 273.9 0.00 0.0000000 73.9
2021-09-15 05:25:00 62.3 63.5 49.7 62.3 62.3 2.6 3.1 2.5 276.1 278.9 0.00 0.0000000 73.9
2021-09-15 05:30:00 62.3 64.8 50.3 62.3 62.3 2.6 3.1 2.7 315.9 279.2 0.00 0.0000000 73.9
2021-09-15 05:35:00 61.9 66.1 50.4 61.9 61.9 3.3 3.7 2.9 289.0 287.2 0.00 0.0000000 73.8
2021-09-15 05:40:00 61.6 66.2 50.2 61.6 61.6 3.1 4.7 3.2 286.4 286.3 0.00 0.0000000 73.8
2021-09-15 05:45:00 62.1 63.9 49.7 62.1 62.1 4.9 5.1 3.9 295.3 304.5 0.00 0.0000000 73.8
2021-09-15 05:50:00 62.2 64.5 50.0 62.2 62.2 4.0 4.9 3.9 297.3 306.0 0.00 0.0000000 73.8
2021-09-15 05:55:00 62.3 64.8 50.3 62.3 62.3 4.4 4.9 4.1 323.4 308.5 0.00 0.0000000 73.8
2021-09-15 06:00:00 61.8 65.2 50.0 61.8 61.8 5.1 6.3 5.3 316.6 309.0 0.00 0.0000000 73.8
2021-09-15 06:05:00 61.8 63.6 49.3 61.8 61.8 5.8 6.9 5.8 316.6 301.4 0.00 0.0000000 73.7
2021-09-15 06:10:00 62.3 60.6 48.5 62.3 62.3 5.5 7.1 5.6 286.5 300.5 0.00 0.0000000 73.7
2021-09-15 06:15:00 62.9 58.4 48.1 62.9 62.9 5.1 6.5 4.9 298.8 298.0 0.00 0.0000000 73.7
2021-09-15 06:20:00 63.0 59.5 48.7 63.0 63.0 2.6 5.6 3.3 318.9 300.4 0.00 0.0000000 73.7
2021-09-15 06:25:00 62.9 59.8 48.7 62.9 62.9 2.1 4.0 2.8 255.0 278.9 0.00 0.0000000 73.7
2021-09-15 06:30:00 62.3 63.1 49.6 62.3 62.3 1.9 2.4 1.8 321.2 306.1 0.00 0.0000000 73.7
2021-09-15 06:35:00 61.2 66.4 49.9 61.2 61.2 1.3 3.3 2.1 258.8 327.1 0.00 0.0000000 73.7
2021-09-15 06:40:00 60.7 68.8 50.4 60.7 60.7 1.2 2.4 1.3 153.1 103.5 0.00 0.0000000 73.6
2021-09-15 06:45:00 60.1 72.2 51.1 60.1 60.1 2.4 3.7 2.6 135.3 164.1 0.00 0.0000000 73.6
2021-09-15 06:50:00 59.8 71.1 50.5 59.8 59.8 1.7 2.6 1.9 124.5 135.1 0.00 0.0001853 73.6
2021-09-15 06:55:00 59.8 72.3 50.8 59.8 59.8 2.1 2.1 0.6 310.6 322.4 0.00 0.0007114 73.6
2021-09-15 07:00:00 59.8 73.7 51.4 59.8 59.8 1.9 1.9 0.9 221.1 270.1 0.00 0.0015632 73.5
2021-09-15 07:05:00 60.1 74.5 52.0 60.1 60.1 5.3 5.3 2.9 173.2 170.4 0.00 0.0031422 73.5
2021-09-15 07:10:00 60.2 74.2 52.0 60.2 60.2 3.0 4.7 3.1 175.0 182.2 0.00 0.0044963 73.5
2021-09-15 07:15:00 60.6 73.4 52.1 60.6 60.6 1.0 3.0 1.9 269.8 232.5 0.00 0.0076800 73.5
2021-09-15 07:20:00 60.8 71.7 51.6 60.8 60.8 1.0 1.0 0.1 190.5 246.7 0.00 0.0098261 73.5
2021-09-15 07:25:00 61.1 73.4 52.5 61.1 61.1 1.0 2.6 1.9 154.2 207.3 0.00 0.0143471 73.5
2021-09-15 07:30:00 61.8 66.6 50.6 61.8 61.8 4.4 4.4 2.9 175.1 186.8 0.00 0.0250948 73.5
2021-09-15 07:35:00 62.9 65.9 51.3 62.9 62.9 3.5 5.5 4.4 198.5 182.0 0.00 0.0152750 73.5
2021-09-15 07:40:00 63.5 59.2 49.0 63.5 63.5 2.1 4.7 3.2 18.5 225.9 0.00 0.0178383 73.4
2021-09-15 07:45:00 65.5 49.0 45.8 65.5 65.5 1.5 4.4 2.4 301.6 252.2 0.00 0.0205176 73.4
2021-09-15 07:50:00 66.6 47.6 46.1 66.6 66.6 2.8 2.8 2.3 253.0 254.6 0.00 0.0232468 73.4
2021-09-15 07:55:00 66.8 53.4 49.3 66.8 66.8 2.1 2.2 1.5 257.2 246.6 0.00 0.0263573 73.4
2021-09-15 08:00:00 66.1 61.0 52.3 66.1 66.1 2.8 2.8 2.2 284.3 290.2 0.00 0.0288007 73.4
2021-09-15 08:05:00 65.8 54.7 49.1 65.8 65.8 1.5 4.6 2.9 264.0 273.5 0.00 0.0308481 73.4
2021-09-15 08:10:00 66.3 55.4 49.8 66.3 66.3 2.4 2.6 1.8 254.3 250.3 0.00 0.0326333 73.4
2021-09-15 08:15:00 66.3 55.6 50.0 66.3 66.3 2.2 3.1 2.0 213.5 250.7 0.00 0.0362327 73.3
2021-09-15 08:20:00 66.7 53.2 49.1 66.7 66.7 0.0 2.4 1.4 283.2 230.2 0.00 0.0390499 73.3
2021-09-15 08:25:00 67.2 58.9 52.3 67.2 67.2 1.5 3.1 1.7 88.8 55.6 0.00 0.0436327 73.3
2021-09-15 08:30:00 67.7 50.2 48.5 67.7 67.7 0.0 2.8 1.2 241.7 28.8 0.00 0.0453971 73.3
2021-09-15 08:35:00 68.2 56.6 52.2 68.2 68.2 1.2 1.7 0.8 297.3 266.3 0.00 0.0495544 73.3
2021-09-15 08:40:00 68.5 51.2 49.8 68.5 68.5 3.1 3.8 2.4 317.0 307.4 0.00 0.0559291 73.3
2021-09-15 08:45:00 69.6 46.2 48.0 69.6 69.6 4.2 5.5 4.1 8.3 353.8 0.00 0.0939472 73.3
2021-09-15 08:50:00 71.0 42.6 47.2 71.0 71.0 4.4 7.2 5.1 339.1 345.8 0.00 0.1391709 73.3
2021-09-15 08:55:00 72.5 41.8 48.0 72.5 72.5 4.6 5.5 4.1 320.1 309.1 0.00 0.1440596 73.3
2021-09-15 09:00:00 73.5 40.2 47.9 73.5 73.5 5.6 6.0 4.2 286.5 292.1 0.00 0.1463632 73.3
2021-09-15 09:05:00 74.1 40.0 48.3 74.1 74.1 5.3 6.9 5.0 327.8 306.1 0.00 0.1248515 73.3
2021-09-15 09:10:00 73.8 40.2 48.2 73.8 73.8 3.5 8.0 5.1 306.6 309.3 0.00 0.0633548 73.3
2021-09-15 09:15:00 73.8 45.1 51.2 73.8 73.8 2.6 5.5 3.6 286.8 294.5 0.00 0.0619243 73.3
2021-09-15 09:20:00 72.7 47.7 51.7 72.7 72.7 3.5 3.8 2.8 273.7 273.4 0.00 0.0593038 73.3
2021-09-15 09:25:00 72.3 48.0 51.5 72.3 72.3 2.4 3.5 2.6 259.5 259.2 0.00 0.0700920 73.4
2021-09-15 09:30:00 72.1 48.8 51.7 72.1 72.1 3.0 3.7 2.7 278.6 252.5 0.00 0.0848955 73.4
2021-09-15 09:35:00 73.4 46.2 51.5 73.4 73.4 3.7 4.4 3.3 261.4 263.7 0.00 0.1616996 73.4
2021-09-15 09:40:00 74.9 42.2 50.3 74.9 74.9 3.5 4.7 3.2 283.7 256.2 0.00 0.1699787 73.4
2021-09-15 09:45:00 76.2 39.3 49.6 76.2 76.2 3.7 6.3 4.8 336.2 298.0 0.00 0.1706334 73.4
2021-09-15 09:50:00 76.6 38.3 49.3 76.6 76.6 4.6 5.6 4.6 307.8 311.2 0.00 0.1745380 73.4
2021-09-15 09:55:00 77.1 37.7 49.3 77.1 77.1 3.7 5.8 4.6 293.2 294.3 0.00 0.1864682 73.4
2021-09-15 10:00:00 76.9 40.9 51.4 76.9 76.9 4.6 6.0 3.7 316.0 307.4 0.00 0.0999160 73.4
2021-09-15 10:05:00 76.5 45.0 53.6 76.5 76.5 3.3 4.6 3.1 246.3 278.8 0.00 0.0854482 73.4
2021-09-15 10:10:00 75.9 46.3 53.8 75.9 75.9 3.7 4.2 3.0 267.0 268.2 0.00 0.0940534 73.4
2021-09-15 10:15:00 76.2 46.7 54.3 76.2 76.2 2.4 3.8 3.0 268.1 273.1 0.00 0.0944006 73.5
2021-09-15 10:20:00 75.5 50.7 55.9 75.5 75.5 3.3 3.5 2.7 258.8 249.8 0.00 0.0780242 73.5
2021-09-15 10:25:00 75.6 48.1 54.6 75.6 75.6 3.0 3.7 2.9 266.5 257.3 0.00 0.1298459 73.5
2021-09-15 10:30:00 76.8 46.9 55.0 76.8 76.8 2.8 3.5 2.9 239.7 251.7 0.00 0.1660708 73.5
2021-09-15 10:35:00 77.4 49.9 57.2 77.4 77.4 2.1 3.5 2.5 236.9 242.2 0.00 0.1139044 73.5
2021-09-15 10:40:00 76.7 48.7 56.0 76.7 76.7 2.8 3.7 2.7 220.3 236.4 0.00 0.0730185 73.6
2021-09-15 10:45:00 76.3 48.3 55.3 76.3 76.3 2.4 3.0 2.6 301.0 260.3 0.00 0.0825674 73.6
2021-09-15 10:50:00 76.7 50.2 56.7 76.7 76.7 2.2 3.1 2.5 264.1 262.5 0.00 0.0630247 73.6
2021-09-15 10:55:00 76.6 47.7 55.3 76.6 76.6 2.4 2.6 2.1 272.0 251.7 0.00 0.0853349 73.7
2021-09-15 11:00:00 77.2 49.9 57.0 77.2 77.2 3.1 3.3 2.8 258.6 252.0 0.00 0.1102123 73.7
2021-09-15 11:05:00 78.4 37.7 50.5 78.4 78.4 4.0 4.0 3.2 275.3 264.9 0.00 0.1607815 73.7
2021-09-15 11:10:00 80.2 28.4 44.5 80.2 80.2 1.3 4.4 3.1 241.0 269.9 0.00 0.1470748 73.7
2021-09-15 11:15:00 81.8 31.9 49.0 81.8 81.8 1.7 2.4 1.2 146.3 136.6 0.00 0.2107544 73.7
2021-09-15 11:20:00 82.8 28.2 46.5 82.8 82.8 3.5 4.0 2.1 89.7 126.1 0.00 0.2049918 73.8
2021-09-15 11:25:00 82.8 31.1 49.1 82.8 82.8 1.7 3.3 1.9 112.6 84.4 0.00 0.1894222 73.8
2021-09-15 11:30:00 84.0 32.5 51.4 84.0 84.0 2.1 3.8 2.6 186.6 318.8 0.00 0.2764338 73.8
2021-09-15 11:35:00 84.4 31.7 51.1 84.4 84.4 3.0 3.3 2.3 192.3 176.1 0.00 0.2740987 73.8
2021-09-15 11:40:00 84.1 32.2 51.2 84.1 84.1 4.2 4.6 3.0 205.8 200.2 0.00 0.2740122 73.9
2021-09-15 11:45:00 84.2 30.7 50.0 84.2 84.2 3.5 4.2 2.7 258.6 238.9 0.00 0.2721161 73.9
2021-09-15 11:50:00 84.8 31.0 50.8 84.8 84.8 4.2 5.1 3.1 176.7 213.0 0.00 0.2704925 73.9
2021-09-15 11:55:00 84.4 33.3 52.4 84.4 84.4 1.2 6.2 3.8 260.4 161.0 0.00 0.2661923 74.0
2021-09-15 12:00:00 84.6 31.9 51.5 84.6 84.6 3.1 6.3 3.1 122.9 149.6 0.00 0.2661313 74.0
2021-09-15 12:05:00 84.8 35.0 54.2 84.8 84.8 4.0 5.1 2.9 167.0 149.7 0.00 0.2669909 74.0
2021-09-15 12:10:00 84.5 33.2 52.4 84.5 84.5 6.3 7.4 5.8 155.3 163.5 0.00 0.2687444 74.0
2021-09-15 12:15:00 84.7 37.4 55.9 84.7 84.7 5.1 6.9 4.0 172.9 145.4 0.00 0.2708388 74.1
2021-09-15 12:20:00 85.0 31.5 51.4 85.0 85.0 2.8 8.0 4.4 102.1 180.0 0.00 0.2733716 74.2
2021-09-15 12:25:00 85.4 35.6 55.1 85.4 85.4 3.0 5.5 3.7 138.7 140.4 0.00 0.2785480 74.2
2021-09-15 12:30:00 85.6 32.0 52.4 85.6 85.6 4.7 7.1 4.9 172.3 177.4 0.00 0.2768070 74.2
2021-09-15 12:35:00 85.2 28.6 49.0 85.2 85.2 3.8 6.3 4.6 197.6 162.7 0.00 0.1407576 74.3
2021-09-15 12:40:00 85.7 34.6 54.5 85.7 85.7 4.0 7.1 5.0 180.2 167.2 0.00 0.2704551 74.4
2021-09-15 12:45:00 86.0 33.1 53.6 86.0 86.0 4.9 6.3 4.1 170.5 142.5 0.00 0.2493016 74.4
2021-09-15 12:50:00 86.5 31.1 52.3 86.5 86.5 6.2 8.5 5.4 131.3 154.9 0.00 0.3013504 74.5
2021-09-15 12:55:00 86.5 28.9 50.4 86.5 86.5 4.0 6.9 5.3 140.1 126.8 0.00 0.2951970 74.5
2021-09-15 13:00:00 87.0 31.9 53.5 87.0 87.0 5.5 8.0 5.9 136.2 160.7 0.00 0.2914848 74.6
2021-09-15 13:05:00 87.0 30.8 52.6 87.0 87.0 4.0 7.8 5.7 132.9 147.1 0.00 0.2893947 74.6
2021-09-15 13:10:00 87.1 31.6 53.3 87.1 87.1 5.5 7.1 5.2 155.4 156.1 0.00 0.2868139 74.7
2021-09-15 13:15:00 87.7 26.6 49.2 87.7 87.7 8.1 9.0 6.9 147.3 159.5 0.00 0.2853498 74.8
2021-09-15 13:20:00 87.3 29.4 51.6 87.3 87.3 6.2 10.6 7.7 165.6 163.7 0.00 0.2831334 74.8
2021-09-15 13:25:00 87.5 28.6 51.0 87.5 87.5 6.5 10.1 6.6 156.9 175.6 0.00 0.2837504 74.9
2021-09-15 13:30:00 87.8 28.7 51.3 87.8 87.8 5.6 9.4 6.4 163.4 160.6 0.00 0.2878509 74.9
2021-09-15 13:35:00 87.9 25.8 48.6 87.9 87.9 6.2 7.6 5.3 153.4 175.4 0.00 0.2534877 75.0
2021-09-15 13:40:00 87.8 29.5 52.0 87.8 87.8 4.4 8.5 5.8 237.8 173.4 0.00 0.2799755 75.1
2021-09-15 13:45:00 88.2 29.1 52.0 88.2 88.2 6.9 7.6 5.1 177.8 172.9 0.00 0.2815672 75.1
2021-09-15 13:50:00 88.4 27.7 50.9 88.4 88.4 2.1 8.7 4.1 176.0 150.2 0.00 0.2138871 75.1
2021-09-15 13:55:00 87.1 26.0 48.0 87.1 87.1 4.6 7.2 4.6 127.5 141.2 0.00 0.0877568 75.2
2021-09-15 14:00:00 86.6 29.0 50.5 86.6 86.6 3.1 4.7 3.0 111.6 112.3 0.00 0.0506825 75.2
2021-09-15 14:05:00 86.1 26.6 47.8 86.1 86.1 4.0 6.0 3.9 138.5 132.4 0.00 0.1697130 75.3
2021-09-15 14:10:00 87.8 31.9 54.2 87.8 87.8 5.3 6.3 4.3 126.6 143.2 0.00 0.2383067 75.4
2021-09-15 14:15:00 87.5 30.3 52.6 87.5 87.5 4.6 5.8 4.4 129.8 166.3 0.00 0.1467979 75.4
2021-09-15 14:20:00 88.7 26.7 50.2 88.7 88.7 4.0 5.1 3.5 211.5 170.9 0.00 0.2703574 75.5
2021-09-15 14:25:00 89.1 25.7 49.5 89.1 89.1 4.2 6.7 3.9 199.1 196.6 0.00 0.2651480 75.5
2021-09-15 14:30:00 89.2 27.7 51.5 89.2 89.2 4.6 6.5 4.5 271.6 229.7 0.00 0.2574030 75.6
2021-09-15 14:35:00 89.3 23.2 46.9 89.3 89.3 2.8 6.0 4.0 213.7 205.6 0.00 0.2516170 75.6
2021-09-15 14:40:00 90.4 24.0 48.7 90.4 90.4 3.7 3.8 2.2 147.5 153.6 0.00 0.2471832 75.7
2021-09-15 14:45:00 90.4 24.3 49.0 90.4 90.4 3.8 5.8 3.7 240.6 177.4 0.00 0.2435639 75.7
2021-09-15 14:50:00 90.2 29.9 54.5 90.2 90.2 4.6 5.8 3.8 217.3 207.4 0.00 0.2399724 75.7
2021-09-15 14:55:00 89.7 27.4 51.6 89.7 89.7 4.4 4.9 3.7 248.6 226.6 0.00 0.2365897 75.8
2021-09-15 15:00:00 89.4 27.7 51.8 89.4 89.4 5.1 8.0 4.5 220.3 232.8 0.00 0.2333488 75.8
2021-09-15 15:05:00 90.0 30.8 55.1 90.0 90.0 2.1 6.5 3.5 192.9 183.4 0.00 0.2293810 75.8
2021-09-15 15:10:00 90.0 25.3 49.7 90.0 90.0 4.2 6.5 4.3 216.6 185.6 0.00 0.2255426 75.9
2021-09-15 15:15:00 90.4 29.8 54.6 90.4 90.4 2.6 5.6 3.2 96.4 216.6 0.00 0.2226539 75.9
2021-09-15 15:20:00 90.0 32.6 56.8 90.0 90.0 2.8 6.0 3.9 225.2 213.7 0.00 0.2186703 76.0
2021-09-15 15:25:00 89.9 30.6 54.9 89.9 89.9 2.4 5.1 3.3 239.0 223.3 0.00 0.2155216 76.0
2021-09-15 15:30:00 89.4 29.1 53.0 89.4 89.4 7.1 7.1 4.8 229.5 225.8 0.00 0.2117927 76.1
2021-09-15 15:35:00 89.6 31.2 55.1 89.6 89.6 1.7 10.5 5.8 77.6 221.8 0.00 0.2081071 76.1
2021-09-15 15:40:00 90.4 23.9 48.6 90.4 90.4 5.3 6.9 3.6 143.8 179.3 0.00 0.2044554 76.1
2021-09-15 15:45:00 90.5 28.8 53.8 90.5 90.5 3.1 6.2 4.3 147.4 170.0 0.00 0.1993400 76.2
2021-09-15 15:50:00 90.5 32.6 57.1 90.5 90.5 4.4 5.8 4.2 152.8 179.5 0.00 0.1946481 76.2
2021-09-15 15:55:00 90.2 34.8 58.7 90.2 90.2 6.2 7.6 5.4 204.0 172.7 0.00 0.1907640 76.2
2021-09-15 16:00:00 90.1 25.1 49.7 90.1 90.1 5.3 7.4 5.2 175.7 159.7 0.00 0.1865257 76.2
2021-09-15 16:05:00 90.8 29.6 54.7 90.8 90.8 4.9 6.3 3.6 148.6 168.5 0.00 0.1825636 76.3
2021-09-15 16:10:00 90.8 30.6 55.7 90.8 90.8 2.8 4.7 3.5 172.4 170.8 0.00 0.1772365 76.3
2021-09-15 16:15:00 90.6 34.8 59.1 90.6 90.6 3.0 4.4 3.1 194.6 195.9 0.00 0.1712550 76.3
2021-09-15 16:20:00 90.3 31.3 55.8 90.3 90.3 3.0 5.6 3.3 175.3 183.8 0.00 0.1657145 76.3
2021-09-15 16:25:00 90.4 28.3 53.2 90.4 90.4 3.0 5.1 3.2 161.0 171.2 0.00 0.1613645 76.4
2021-09-15 16:30:00 90.5 29.4 54.3 90.5 90.5 3.0 6.0 3.9 188.9 172.9 0.00 0.1565705 76.4
2021-09-15 16:35:00 90.3 26.8 51.5 90.3 90.3 3.5 4.9 3.6 181.8 178.2 0.00 0.1515288 76.4
2021-09-15 16:40:00 90.6 32.0 56.7 90.6 90.6 2.8 4.0 2.8 283.3 191.3 0.00 0.1469638 76.4
2021-09-15 16:45:00 90.3 33.2 57.4 90.3 90.3 3.1 4.4 3.1 183.7 188.3 0.00 0.1414102 76.5
2021-09-15 16:50:00 90.4 32.1 56.6 90.4 90.4 1.7 3.1 2.5 92.7 203.1 0.00 0.1365093 76.5
2021-09-15 16:55:00 90.5 34.6 58.8 90.5 90.5 1.9 3.0 2.2 195.1 205.6 0.00 0.1314599 76.5
2021-09-15 17:00:00 90.5 32.7 57.2 90.5 90.5 3.0 3.5 2.2 190.9 201.9 0.00 0.1266960 76.5
2021-09-15 17:05:00 90.2 32.4 56.7 90.2 90.2 3.7 4.9 3.4 185.5 181.5 0.00 0.1209182 76.5
2021-09-15 17:10:00 89.8 35.3 58.8 89.8 89.8 1.9 4.0 2.3 143.6 185.5 0.00 0.1156314 76.5
2021-09-15 17:15:00 90.4 30.9 55.5 90.4 90.4 1.5 3.0 1.9 241.8 213.0 0.00 0.1102980 76.6
2021-09-15 17:20:00 90.4 29.0 53.8 90.4 90.4 2.4 3.1 2.2 234.0 230.5 0.00 0.1051024 76.6
2021-09-15 17:25:00 90.0 35.2 58.8 90.0 90.0 2.2 2.6 2.1 220.3 222.9 0.00 0.0996108 76.6
2021-09-15 17:30:00 89.7 31.7 55.7 89.7 89.7 1.7 2.4 1.6 149.4 217.8 0.00 0.0935450 76.6
2021-09-15 17:35:00 89.5 36.4 59.3 89.5 89.5 1.5 2.1 1.6 210.8 223.0 0.00 0.0881020 76.6
2021-09-15 17:40:00 89.7 35.1 58.4 89.7 89.7 1.3 2.1 0.9 298.7 219.1 0.00 0.0830321 76.6
2021-09-15 17:45:00 90.1 36.8 60.2 90.1 90.1 1.0 1.9 1.0 227.5 254.6 0.00 0.0780326 76.6
2021-09-15 17:50:00 89.9 36.3 59.6 89.9 89.9 1.0 1.5 0.9 263.0 246.5 0.00 0.0727295 76.7
2021-09-15 17:55:00 89.6 37.5 60.3 89.6 89.6 0.0 1.5 0.8 224.7 224.6 0.00 0.0669400 76.7
2021-09-15 18:00:00 89.3 40.8 62.5 89.3 90.0 0.0 1.0 0.1 222.4 196.1 0.00 0.0615657 76.7
2021-09-15 18:05:00 87.9 37.4 58.7 87.9 87.9 1.0 1.2 0.8 163.3 190.8 0.00 0.0554787 76.7
2021-09-15 18:10:00 86.8 45.0 62.9 86.8 87.6 1.0 1.5 1.2 176.0 174.9 0.00 0.0521340 76.7
2021-09-15 18:15:00 86.1 41.1 59.7 86.1 85.8 1.0 1.2 0.5 215.2 187.7 0.00 0.0486756 76.7
2021-09-15 18:20:00 85.2 42.1 59.6 85.2 84.9 1.0 1.7 1.4 213.6 216.8 0.00 0.0447412 76.7
2021-09-15 18:25:00 84.1 46.8 61.5 84.1 84.6 1.5 1.9 1.3 202.6 201.9 0.00 0.0395351 76.7
2021-09-15 18:30:00 83.2 47.6 61.2 83.2 83.7 1.3 1.7 1.4 210.3 196.7 0.00 0.0348647 76.7
2021-09-15 18:35:00 82.5 52.2 63.2 82.5 83.7 0.0 1.3 0.5 182.9 196.1 0.00 0.0301804 76.7
2021-09-15 18:40:00 81.3 51.9 61.9 81.3 82.3 1.2 1.2 0.4 202.5 195.2 0.00 0.0115086 76.7
2021-09-15 18:45:00 80.3 55.6 63.0 80.3 81.7 0.0 1.5 0.8 257.9 220.0 0.00 0.0077959 76.7
2021-09-15 18:50:00 79.6 58.7 63.8 79.6 79.6 0.0 0.0 0.0 310.3 0.0 0.00 0.0051357 76.7
2021-09-15 18:55:00 78.7 60.4 63.9 78.7 78.7 0.0 0.0 0.0 188.8 0.0 0.00 0.0029315 76.6
2021-09-15 19:00:00 77.9 61.4 63.6 77.9 77.9 0.0 0.0 0.0 193.8 0.0 0.00 0.0014245 76.7
2021-09-15 19:05:00 77.0 59.0 61.6 77.0 77.0 0.0 0.0 0.0 193.9 0.0 0.00 0.0009637 76.6
2021-09-15 19:10:00 76.4 60.2 61.6 76.4 76.4 0.0 0.0 0.0 174.3 0.0 0.00 0.0008512 76.6
2021-09-15 19:15:00 76.2 62.1 62.2 76.2 76.2 0.0 0.0 0.0 191.3 0.0 0.00 0.0005005 76.6
2021-09-15 19:20:00 75.8 65.7 63.5 75.8 75.8 0.0 0.0 0.0 147.5 0.0 0.00 0.0000843 76.6
2021-09-15 19:25:00 75.5 67.3 63.9 75.5 75.5 0.0 0.0 0.0 184.4 0.0 0.00 0.0000000 76.6
2021-09-15 19:30:00 75.4 69.2 64.6 75.4 75.4 0.0 0.0 0.0 143.6 0.0 0.00 0.0000000 76.6
2021-09-15 19:35:00 75.2 69.2 64.4 75.2 75.2 1.2 1.3 0.3 181.4 171.5 0.00 0.0000000 76.6
2021-09-15 19:40:00 74.9 70.0 64.5 74.9 74.9 0.0 1.2 0.4 240.9 204.5 0.00 0.0000000 76.6
2021-09-15 19:45:00 74.5 71.0 64.5 74.5 74.5 0.0 1.0 0.3 231.3 211.5 0.00 0.0000000 76.6
2021-09-15 19:50:00 74.1 80.2 67.6 74.1 74.1 4.2 4.2 1.1 99.1 116.1 0.00 0.0000000 76.5
2021-09-15 19:55:00 76.4 53.2 58.1 76.4 76.4 4.6 6.0 4.1 101.5 118.1 0.00 0.0000985 76.5
2021-09-15 20:00:00 79.2 43.8 55.3 79.2 79.2 4.2 5.8 4.4 113.8 95.8 0.00 0.0001058 76.5
2021-09-15 20:05:00 79.9 43.7 55.9 79.9 79.9 7.4 7.4 3.8 34.0 35.7 0.00 0.0000010 76.5
2021-09-15 20:10:00 79.3 45.3 56.3 79.3 79.3 4.6 6.7 5.6 30.2 20.5 0.00 0.0000000 76.5
2021-09-15 20:15:00 78.7 47.8 57.3 78.7 78.7 2.4 5.1 3.2 126.0 105.3 0.00 0.0000000 76.4
2021-09-15 20:20:00 79.6 44.3 55.9 79.6 79.6 4.6 5.1 3.7 110.6 125.0 0.00 0.0000000 76.4
2021-09-15 20:25:00 80.9 41.8 55.6 80.9 80.8 5.1 8.1 5.4 107.1 127.1 0.00 0.0000000 76.4
2021-09-15 20:30:00 81.1 41.9 55.8 81.1 80.9 4.2 7.6 4.9 124.7 129.2 0.00 0.0000000 76.4
2021-09-15 20:35:00 81.0 41.9 55.7 81.0 80.8 4.2 5.5 4.2 144.5 125.8 0.00 0.0000000 76.3
2021-09-15 20:40:00 81.1 41.2 55.3 81.1 80.8 6.2 7.6 5.0 141.7 127.8 0.00 0.0000000 76.3
2021-09-15 20:45:00 82.2 37.8 54.0 82.2 82.2 4.7 10.5 6.3 126.1 118.2 0.00 0.0000020 76.3
2021-09-15 20:50:00 82.6 36.4 53.2 82.6 82.6 6.5 9.0 6.2 122.8 115.5 0.00 0.0000000 76.3
2021-09-15 20:55:00 83.0 34.4 52.0 83.0 83.0 8.7 10.3 6.7 112.1 109.9 0.00 0.0000000 76.2
2021-09-15 21:00:00 82.7 32.7 50.5 82.7 82.7 8.5 9.9 6.3 132.4 120.1 0.00 0.0000000 76.2
2021-09-15 21:05:00 82.9 33.0 50.9 82.9 82.9 3.1 10.8 6.4 142.8 114.8 0.00 0.0000000 76.2
2021-09-15 21:10:00 82.5 33.0 50.5 82.5 82.5 4.7 9.0 5.2 163.4 130.1 0.00 0.0000000 76.2
2021-09-15 21:15:00 82.2 33.0 50.3 82.2 82.2 7.6 7.6 4.1 97.9 129.5 0.00 0.0000000 76.2
2021-09-15 21:20:00 82.2 32.7 50.0 82.2 82.2 5.6 8.5 5.7 120.0 115.9 0.00 0.0000000 76.2
2021-09-15 21:25:00 82.6 31.7 49.5 82.6 82.6 5.5 9.9 7.1 99.5 114.2 0.00 0.0000000 76.1
2021-09-15 21:30:00 82.5 31.7 49.4 82.5 82.5 5.1 9.9 6.5 87.6 104.1 0.00 0.0000000 76.1
2021-09-15 21:35:00 82.6 31.9 49.7 82.6 82.6 5.3 9.7 6.7 88.4 103.1 0.00 0.0000000 76.1
2021-09-15 21:40:00 82.6 31.2 49.0 82.6 82.6 8.7 13.1 7.9 98.4 107.9 0.00 0.0000000 76.0
2021-09-15 21:45:00 82.3 31.3 48.9 82.3 82.3 6.2 13.9 10.0 135.2 108.2 0.00 0.0000000 76.0
2021-09-15 21:50:00 82.0 31.1 48.5 82.0 82.0 8.3 12.8 7.9 87.3 113.1 0.00 0.0000000 76.0
2021-09-15 21:55:00 82.1 30.9 48.4 82.1 82.1 5.8 12.6 8.8 164.0 111.4 0.00 0.0000000 76.0
2021-09-15 22:00:00 81.6 30.0 47.2 81.6 81.6 7.2 7.2 5.7 87.3 120.1 0.00 0.0000000 76.0
2021-09-15 22:05:00 81.8 29.3 46.7 81.8 81.8 6.5 9.6 6.4 106.1 120.9 0.00 0.0000000 75.9
2021-09-15 22:10:00 81.1 29.1 45.9 81.1 81.1 4.0 6.3 4.6 124.0 129.7 0.00 0.0000000 75.9
2021-09-15 22:15:00 80.6 29.3 45.7 80.6 80.6 4.0 8.0 4.5 150.2 142.8 0.00 0.0000000 75.9
2021-09-15 22:20:00 79.1 36.1 49.9 79.1 79.1 3.3 5.8 4.3 197.0 170.0 0.00 0.0000000 75.9
2021-09-15 22:25:00 78.2 32.6 46.4 78.2 78.2 4.7 7.1 4.6 153.3 169.2 0.00 0.0000000 75.8
2021-09-15 22:30:00 77.2 36.0 48.2 77.2 77.2 6.2 7.2 5.5 178.7 172.0 0.00 0.0000000 75.8
2021-09-15 22:35:00 76.1 38.3 48.9 76.1 76.1 4.7 9.0 6.2 117.2 166.6 0.00 0.0000000 75.8
2021-09-15 22:40:00 75.7 38.9 48.9 75.7 75.7 4.7 7.4 5.6 167.9 163.2 0.00 0.0000000 75.8
2021-09-15 22:45:00 75.8 36.6 47.4 75.8 75.8 6.5 7.2 5.8 166.8 169.0 0.00 0.0000000 75.7
2021-09-15 22:50:00 75.8 39.6 49.5 75.8 75.8 3.8 7.2 4.5 190.0 177.4 0.00 0.0000000 75.7
2021-09-15 22:55:00 75.4 37.4 47.6 75.4 75.4 1.9 4.2 3.3 145.3 161.9 0.00 0.0000000 75.7
2021-09-15 23:00:00 75.8 38.1 48.5 75.8 75.8 1.9 4.7 2.9 156.7 179.2 0.00 0.0000000 75.7
2021-09-15 23:05:00 75.3 40.5 49.6 75.3 75.3 4.7 5.8 2.2 327.5 271.6 0.00 0.0000000 75.7
2021-09-15 23:10:00 74.1 44.4 51.0 74.1 74.1 1.7 5.1 3.1 208.2 262.7 0.00 0.0000000 75.7
2021-09-15 23:15:00 73.0 39.3 46.8 73.0 73.0 3.3 5.8 3.3 77.6 188.5 0.00 0.0000000 75.6
2021-09-15 23:20:00 74.6 41.4 49.7 74.6 74.6 5.1 7.2 5.5 177.8 161.0 0.00 0.0000013 75.6
2021-09-15 23:25:00 73.9 41.5 49.0 73.9 73.9 7.2 8.3 6.6 140.1 164.6 0.00 0.0000000 75.6
2021-09-15 23:30:00 73.9 40.6 48.5 73.9 73.9 6.7 8.7 6.6 136.3 156.0 0.00 0.0000000 75.6
2021-09-15 23:35:00 74.6 36.4 46.2 74.6 74.6 5.6 7.1 6.0 150.1 161.5 0.00 0.0000000 75.5
2021-09-15 23:40:00 75.3 35.1 45.8 75.3 75.3 5.6 7.4 5.8 157.4 154.2 0.00 0.0000000 75.5
2021-09-15 23:45:00 75.5 35.7 46.4 75.5 75.5 6.2 7.8 6.7 172.0 169.5 0.00 0.0000000 75.5
2021-09-15 23:50:00 74.8 37.3 46.9 74.8 74.8 7.6 8.0 6.0 158.8 167.4 0.00 0.0000000 75.5
2021-09-15 23:55:00 74.3 36.5 46.0 74.3 74.3 7.2 8.8 7.1 153.6 166.6 0.00 0.0000000 75.5
2021-09-16 00:00:00 74.6 36.3 46.1 74.6 74.6 7.1 9.4 7.3 180.9 169.2 0.00 0.0000000 75.4

Data is courtesy of the NM Climate Center. DO NOT USE IN LEGAL PROCEEDINGS.